Time;durP1;ratioP1;P1;durP2;ratioP2;P2;SDS_P1;SDS_P2;PMS_P1;PMS_P2;Temp;Humidity;BMP_temperature;BMP_pressure;BME280_temperature;BME280_humidity;BME280_pressure;Samples;Min_cycle;Max_cycle;Signal;HPM_P1;HPM_P2
2023/07/13 00:01:15;;;;;;;2.50;1.90;;;;;;;18.61;70.53;100200.09;105532;1255;69941;-45
2023/07/13 00:03:43;;;;;;;3.80;2.10;;;;;;;18.64;70.74;100193.02;105581;1256;69931;-47
2023/07/13 00:06:12;;;;;;;3.70;2.00;;;;;;;18.67;71.03;100188.16;105856;1253;74669;-46
2023/07/13 00:08:41;;;;;;;4.20;2.10;;;;;;;18.69;71.26;100184.30;105764;1256;83374;-46
2023/07/13 00:11:10;;;;;;;3.40;2.00;;;;;;;18.68;71.45;100185.77;105689;1251;72678;-47
2023/07/13 00:13:40;;;;;;;3.60;2.30;;;;;;;18.67;71.63;100183.42;105549;1254;69916;-46
2023/07/13 00:16:10;;;;;;;5.90;2.30;;;;;;;18.66;71.87;100181.16;105537;1254;69922;-47
2023/07/13 00:18:38;;;;;;;;;;;;;;;18.67;72.14;100174.03;105598;1254;74573;-46
2023/07/13 00:21:07;;;;;;;3.30;2.00;;;;;;;18.68;72.42;100159.42;105574;1254;83043;-47
2023/07/13 00:23:37;;;;;;;2.90;2.10;;;;;;;18.74;72.39;100158.85;105516;1254;73582;-46
2023/07/13 00:26:08;;;;;;;3.40;2.40;;;;;;;18.79;72.60;100166.63;105610;1255;69927;-47
2023/07/13 00:28:39;;;;;;;3.40;2.00;;;;;;;18.76;72.51;100177.85;105608;1254;69992;-47
2023/07/13 00:31:10;;;;;;;2.50;2.10;;;;;;;18.71;72.06;100181.31;105621;1255;75718;-47
2023/07/13 00:33:39;;;;;;;4.00;2.10;;;;;;;18.69;72.03;100184.64;105718;1254;83106;-46
2023/07/13 00:36:09;;;;;;;3.00;2.00;;;;;;;18.70;72.35;100179.30;105419;1254;72695;-46
2023/07/13 00:38:38;;;;;;;;;;;;;;;18.70;72.61;100179.63;105634;1254;69973;-47
2023/07/13 00:41:09;;;;;;;2.80;2.00;;;;;;;18.70;72.67;100181.05;105389;1254;69851;-45
2023/07/13 00:43:37;;;;;;;2.50;1.80;;;;;;;18.65;72.43;100183.56;105486;1254;74839;-47
2023/07/13 00:46:22;;;;;;;1.90;1.60;;;;;;;18.58;71.73;100187.99;105467;1254;83716;-46
2023/07/13 00:48:53;;;;;;;2.70;2.00;;;;;;;18.60;71.15;100198.06;105405;1255;73729;-48
2023/07/13 00:51:27;;;;;;;2.10;1.80;;;;;;;18.67;70.60;100202.30;105631;1256;69953;-47
2023/07/13 00:53:59;;;;;;;1.90;1.60;;;;;;;18.76;70.13;100201.71;105456;1256;70001;-47
2023/07/13 00:56:28;;;;;;;3.00;2.00;;;;;;;18.85;69.71;100196.79;105630;1254;74043;-47
2023/07/13 00:58:57;;;;;;;4.20;1.90;;;;;;;18.94;69.68;100195.96;105525;1254;82872;-47
2023/07/13 01:01:25;;;;;;;4.20;2.20;;;;;;;19.00;69.40;100195.66;105611;1254;73371;-47
2023/07/13 01:03:54;;;;;;;3.80;1.80;;;;;;;19.04;68.99;100196.27;105449;1255;69989;-48
2023/07/13 01:06:22;;;;;;;3.40;2.40;;;;;;;19.06;68.90;100198.41;105498;1256;70450;-46
2023/07/13 01:08:51;;;;;;;4.10;2.10;;;;;;;19.07;68.77;100199.58;105552;1254;74631;-47
2023/07/13 01:11:21;;;;;;;3.40;1.60;;;;;;;19.07;68.43;100196.02;105467;1254;81779;-47
2023/07/13 01:13:50;;;;;;;2.70;1.80;;;;;;;19.09;68.51;100194.27;105473;1254;72802;-48
2023/07/13 01:16:24;;;;;;;2.30;1.60;;;;;;;19.11;68.09;100195.18;105420;1254;69998;-47
2023/07/13 01:18:54;;;;;;;3.30;1.80;;;;;;;19.12;67.93;100189.21;105510;1254;69874;-48
2023/07/13 01:21:25;;;;;;;4.30;1.70;;;;;;;19.15;68.18;100186.70;105528;1254;74750;-47
2023/07/13 01:23:53;;;;;;;2.50;1.90;;;;;;;19.19;68.54;100183.23;105512;1254;81663;-47
2023/07/13 01:26:22;;;;;;;4.20;1.80;;;;;;;19.22;68.42;100184.83;105493;1254;73827;-47
2023/07/13 01:28:50;;;;;;;2.20;1.50;;;;;;;19.22;68.24;100179.88;105436;1254;70031;-47
2023/07/13 01:31:18;;;;;;;3.80;1.80;;;;;;;19.22;68.22;100167.10;105471;1254;69881;-47
2023/07/13 01:33:47;;;;;;;3.50;1.80;;;;;;;19.23;68.52;100163.98;105468;1254;73969;-49
2023/07/13 01:36:15;;;;;;;3.00;1.90;;;;;;;19.22;68.95;100155.55;105482;1256;82532;-47
2023/07/13 01:38:44;;;;;;;5.00;2.00;;;;;;;19.21;69.22;100149.61;105452;1258;73696;-47
2023/07/13 01:41:13;;;;;;;4.20;1.60;;;;;;;19.21;69.19;100147.45;105652;1259;69809;-47
2023/07/13 01:43:41;;;;;;;2.30;1.80;;;;;;;19.22;69.44;100143.83;105355;1254;69887;-48
2023/07/13 01:46:09;;;;;;;4.90;1.60;;;;;;;19.22;69.55;100143.02;105504;1258;74663;-47
2023/07/13 01:48:51;;;;;;;2.50;1.70;;;;;;;19.15;68.94;100147.23;105563;1256;83317;-48
2023/07/13 01:51:20;;;;;;;2.80;1.70;;;;;;;19.15;68.79;100142.25;105581;1252;71964;-47
2023/07/13 01:53:49;;;;;;;2.00;1.70;;;;;;;19.20;68.77;100133.98;105492;1254;69871;-47
2023/07/13 01:56:18;;;;;;;4.80;1.70;;;;;;;19.25;69.09;100120.48;105597;1255;70474;-47
2023/07/13 01:58:47;;;;;;;2.70;1.90;;;;;;;19.29;69.68;100120.63;105566;1258;74786;-47
2023/07/13 02:01:16;;;;;;;3.30;1.90;;;;;;;19.28;69.74;100121.27;105562;1255;83435;-49
2023/07/13 02:03:44;;;;;;;2.40;2.00;;;;;;;19.19;69.85;100116.66;105489;1259;73744;-47
2023/07/13 02:06:12;;;;;;;3.10;1.90;;;;;;;19.11;70.03;100118.67;105573;1255;70027;-48
2023/07/13 02:08:42;;;;;;;4.10;2.10;;;;;;;19.02;70.11;100119.60;105721;1256;70386;-47
2023/07/13 02:11:11;;;;;;;;;;;;;;;18.89;70.23;100117.35;105629;1254;74683;-47
2023/07/13 02:13:39;;;;;;;2.50;1.70;;;;;;;18.75;70.29;100123.38;105502;1258;82417;-47
2023/07/13 02:16:08;;;;;;;4.10;1.80;;;;;;;18.62;70.53;100125.42;105509;1257;71897;-47
2023/07/13 02:18:37;;;;;;;4.30;2.00;;;;;;;18.51;70.72;100132.92;105702;1253;69878;-48
2023/07/13 02:21:06;;;;;;;5.50;2.10;;;;;;;18.41;70.83;100128.55;105593;1256;69919;-47
2023/07/13 02:23:34;;;;;;;2.00;1.80;;;;;;;18.33;71.07;100133.00;105688;1256;74618;-47
2023/07/13 02:26:03;;;;;;;2.10;1.60;;;;;;;18.32;70.69;100133.10;105568;1256;83328;-47
2023/07/13 02:28:31;;;;;;;3.90;2.30;;;;;;;18.38;70.86;100135.00;105613;1256;71521;-47
2023/07/13 02:31:08;;;;;;;2.90;1.80;;;;;;;18.44;71.39;100131.86;105457;1254;183269;-48
2023/07/13 02:33:36;;;;;;;2.70;2.20;;;;;;;18.51;71.77;100138.23;105679;1254;69979;-47
2023/07/13 02:36:05;;;;;;;5.30;2.20;;;;;;;18.52;71.22;100153.92;105514;1256;73779;-47
2023/07/13 02:38:35;;;;;;;5.60;2.20;;;;;;;18.54;70.68;100164.77;105621;1254;82787;-47
2023/07/13 02:41:05;;;;;;;4.20;2.00;;;;;;;18.59;70.25;100162.58;105566;1252;73662;-47
2023/07/13 02:43:34;;;;;;;2.50;1.60;;;;;;;18.66;69.98;100152.15;105550;1254;69937;-48
2023/07/13 02:46:07;;;;;;;3.40;1.90;;;;;;;18.73;69.64;100144.72;105640;1254;69884;-47
2023/07/13 02:48:37;;;;;;;3.10;1.80;;;;;;;18.80;69.72;100136.98;105484;1252;73815;-47
2023/07/13 02:51:07;;;;;;;2.30;1.50;;;;;;;18.86;69.98;100139.20;105513;1257;83488;-46
2023/07/13 02:53:36;;;;;;;2.10;1.90;;;;;;;18.87;70.04;100152.17;105388;1260;73467;-48
2023/07/13 02:56:05;;;;;;;3.30;2.00;;;;;;;18.83;69.81;100160.33;105592;1256;69977;-47
2023/07/13 02:58:36;;;;;;;2.20;2.00;;;;;;;18.82;69.62;100166.92;105510;1256;69982;-47
2023/07/13 03:01:09;;;;;;;2.00;1.80;;;;;;;18.84;69.37;100161.08;105565;1256;74830;-47
2023/07/13 03:03:38;;;;;;;2.30;1.90;;;;;;;18.90;69.32;100162.42;105677;1254;83479;-48
2023/07/13 03:06:08;;;;;;;2.90;2.10;;;;;;;18.96;69.44;100161.84;105557;1254;72678;-47
2023/07/13 03:08:50;;;;;;;3.90;2.00;;;;;;;19.00;69.59;100159.35;105592;1256;69986;-47
2023/07/13 03:11:20;;;;;;;4.60;2.00;;;;;;;19.04;69.67;100153.05;105566;1254;70532;-46
2023/07/13 03:13:55;;;;;;;2.20;1.60;;;;;;;19.10;69.79;100148.17;105529;1254;74567;-47
2023/07/13 03:16:24;;;;;;;2.50;2.20;;;;;;;19.12;69.74;100146.39;105571;1254;83655;-48
2023/07/13 03:18:53;;;;;;;3.10;1.70;;;;;;;19.11;69.67;100148.42;105474;1254;72666;-46
2023/07/13 03:21:23;;;;;;;3.60;2.00;;;;;;;19.11;69.50;100147.39;105554;1257;69836;-48
2023/07/13 03:23:51;;;;;;;3.20;1.90;;;;;;;19.12;69.09;100147.07;105462;1259;70019;-46
2023/07/13 03:26:20;;;;;;;3.40;1.90;;;;;;;19.16;69.42;100146.46;105552;1256;74197;-47
2023/07/13 03:28:49;;;;;;;8.00;2.90;;;;;;;19.15;69.90;100147.24;105634;1256;83008;-48
2023/07/13 03:31:24;;;;;;;3.20;2.10;;;;;;;19.14;70.79;100156.67;105550;1252;73775;-46
2023/07/13 03:33:52;;;;;;;4.50;2.40;;;;;;;19.09;70.68;100174.45;105592;1254;70142;-47
2023/07/13 03:36:25;;;;;;;3.00;2.00;;;;;;;19.04;70.01;100188.30;105584;1254;69922;-47
2023/07/13 03:38:58;;;;;;;3.30;2.00;;;;;;;18.99;70.07;100206.73;105535;1254;73804;-47
2023/07/13 03:41:33;;;;;;;5.20;2.40;;;;;;;18.93;70.51;100226.30;105773;1256;83266;-47
2023/07/13 03:44:02;;;;;;;5.90;3.00;;;;;;;18.79;70.70;100254.40;105678;1254;73762;-50
2023/07/13 03:46:30;;;;;;;6.50;2.60;;;;;;;18.34;70.64;100286.13;105643;1254;69806;-51
2023/07/13 03:48:59;;;;;;;4.20;2.60;;;;;;;17.71;72.00;100310.63;105653;1257;69060;-50
2023/07/13 03:51:27;;;;;;;6.10;2.30;;;;;;;17.21;73.18;100335.89;105513;1254;74874;-52
2023/07/13 03:53:56;;;;;;;7.40;2.70;;;;;;;16.76;74.20;100363.66;105684;1255;83350;-56
2023/07/13 03:56:26;;;;;;;5.60;2.60;;;;;;;16.36;76.06;100383.44;105467;1254;73360;-55
2023/07/13 03:58:55;;;;;;;6.80;2.80;;;;;;;16.01;77.77;100397.87;105765;1257;69148;-54
2023/07/13 04:01:27;;;;;;;8.90;3.40;;;;;;;15.78;79.02;100401.54;105813;1255;69106;-55
2023/07/13 04:03:56;;;;;;;4.30;2.50;;;;;;;15.63;80.13;100400.42;105300;1258;74780;-52
2023/07/13 04:06:29;;;;;;;6.20;3.00;;;;;;;15.51;81.15;100400.41;105612;1253;83327;-54
2023/07/13 04:08:59;;;;;;;4.00;2.80;;;;;;;15.41;82.08;100402.39;105250;1259;73772;-55
2023/07/13 04:11:31;;;;;;;5.90;2.60;;;;;;;15.33;82.49;100404.07;105563;1258;69152;-55
2023/07/13 04:14:00;;;;;;;4.60;2.20;;;;;;;15.25;82.96;100401.17;105653;1253;69130;-56
2023/07/13 04:16:29;;;;;;;4.10;2.50;;;;;;;15.16;83.55;100399.57;105846;1253;74403;-56
2023/07/13 04:18:59;;;;;;;5.40;2.60;;;;;;;15.11;84.43;100391.08;105645;1258;83251;-57
2023/07/13 04:21:30;;;;;;;3.90;2.80;;;;;;;15.09;85.20;100383.27;105567;1253;74771;-56
2023/07/13 04:23:59;;;;;;;;;;;;;;;15.09;85.90;100376.05;105624;1258;69231;-57
2023/07/13 04:26:27;;;;;;;6.30;3.00;;;;;;;15.10;86.92;100368.92;105898;1257;69124;-57
2023/07/13 04:28:57;;;;;;;7.70;3.20;;;;;;;15.21;87.96;100360.77;105560;1253;74830;-55
2023/07/13 04:31:25;;;;;;;5.40;3.30;;;;;;;15.27;88.08;100356.71;105588;1253;83127;-56
2023/07/13 04:33:53;;;;;;;6.60;3.20;;;;;;;15.32;88.85;100351.51;105486;1257;73624;-56
2023/07/13 04:36:22;;;;;;;6.20;3.90;;;;;;;15.38;89.24;100339.17;105559;1259;69263;-56
2023/07/13 04:38:50;;;;;;;4.90;3.60;;;;;;;15.47;89.82;100319.16;105471;1258;69171;-56
2023/07/13 04:41:19;;;;;;;5.40;3.30;;;;;;;15.52;90.06;100302.27;105554;1253;74796;-56
2023/07/13 04:43:48;;;;;;;5.10;3.60;;;;;;;15.59;90.56;100299.54;105903;1256;83719;-56
2023/07/13 04:46:20;;;;;;;7.40;3.50;;;;;;;15.65;90.84;100303.61;105789;1253;73397;-56
2023/07/13 04:48:50;;;;;;;6.60;3.50;;;;;;;15.71;90.89;100318.79;105966;1253;69205;-56
2023/07/13 04:51:19;;;;;;;4.50;3.10;;;;;;;15.71;90.47;100327.92;106002;1256;67974;-56
2023/07/13 04:53:47;;;;;;;6.60;2.80;;;;;;;15.68;90.30;100336.93;105941;1257;74690;-56
2023/07/13 04:56:16;;;;;;;4.80;3.10;;;;;;;15.67;90.71;100344.40;105480;1259;83312;-55
2023/07/13 04:58:44;;;;;;;5.20;3.10;;;;;;;15.67;90.94;100343.66;105616;1253;73908;-56
2023/07/13 05:01:13;;;;;;;4.30;3.60;;;;;;;15.70;91.38;100332.05;105575;1253;69152;-55
2023/07/13 05:03:42;;;;;;;6.20;3.60;;;;;;;15.77;92.01;100326.16;105669;1258;69180;-56
2023/07/13 05:06:11;;;;;;;4.80;3.60;;;;;;;15.85;92.53;100331.00;105599;1253;74825;-53
2023/07/13 05:08:39;;;;;;;7.40;4.10;;;;;;;15.95;92.84;100340.46;105604;1253;82180;-55
2023/07/13 05:11:08;;;;;;;5.30;4.20;;;;;;;16.03;92.84;100343.64;105465;1256;73839;-54
2023/07/13 05:13:37;;;;;;;5.30;3.70;;;;;;;16.09;92.87;100339.23;105567;1258;69141;-54
2023/07/13 05:16:07;;;;;;;4.60;3.30;;;;;;;16.17;93.12;100335.92;105503;1257;69925;-56
2023/07/13 05:18:36;;;;;;;4.30;3.50;;;;;;;16.25;93.35;100328.73;105607;1257;73123;-56
2023/07/13 05:21:10;;;;;;;4.70;2.90;;;;;;;16.32;93.30;100328.32;105793;1253;82210;-54
2023/07/13 05:23:40;;;;;;;;;;;;;;;16.37;93.19;100326.23;105639;1253;73636;-56
2023/07/13 05:26:08;;;;;;;5.30;3.10;;;;;;;16.40;93.09;100322.14;105563;1258;69189;-55
2023/07/13 05:28:38;;;;;;;3.50;2.80;;;;;;;16.47;93.61;100323.66;105670;1254;69056;-58
2023/07/13 05:31:10;;;;;;;6.60;2.70;;;;;;;16.51;93.05;100326.77;107105;1256;74984;-56
2023/07/13 05:33:39;;;;;;;8.20;2.50;;;;;;;16.53;93.05;100325.38;105607;1258;84642;-54
2023/07/13 05:36:08;;;;;;;7.40;3.10;;;;;;;16.54;92.92;100323.58;105739;1255;72705;-55
2023/07/13 05:38:36;;;;;;;6.10;2.80;;;;;;;16.53;92.50;100325.05;105646;1253;69195;-57
2023/07/13 05:41:05;;;;;;;6.50;2.80;;;;;;;16.50;92.63;100331.38;105502;1257;69774;-55
2023/07/13 05:43:34;;;;;;;6.50;2.70;;;;;;;16.54;93.23;100333.60;105860;1253;74762;-54
2023/07/13 05:46:02;;;;;;;6.90;3.10;;;;;;;16.63;93.54;100337.80;105566;1253;82029;-55
2023/07/13 05:48:30;;;;;;;4.90;3.10;;;;;;;16.73;93.96;100338.44;105608;1259;72551;-55
2023/07/13 05:50:59;;;;;;;6.40;3.00;;;;;;;16.81;94.25;100335.65;105486;1259;69149;-53
2023/07/13 05:53:27;;;;;;;4.40;2.70;;;;;;;16.93;94.60;100333.64;105741;1256;69164;-56
2023/07/13 05:55:56;;;;;;;3.90;2.30;;;;;;;17.01;94.22;100330.70;105657;1257;74673;-55
2023/07/13 05:58:26;;;;;;;7.10;2.70;;;;;;;17.06;94.21;100335.29;105667;1253;82362;-54
2023/07/13 06:01:04;;;;;;;3.00;2.20;;;;;;;17.11;93.89;100344.15;105579;1257;73984;-54
2023/07/13 06:03:33;;;;;;;5.20;2.90;;;;;;;17.14;93.82;100349.05;105581;1258;69271;-56
2023/07/13 06:06:02;;;;;;;4.50;2.60;;;;;;;17.13;93.85;100348.41;106035;1254;69141;-55
2023/07/13 06:08:31;;;;;;;4.40;2.80;;;;;;;17.15;93.96;100351.42;105622;1256;74871;-55
2023/07/13 06:11:09;;;;;;;4.30;3.00;;;;;;;17.16;93.84;100350.86;105542;1257;82337;-55
2023/07/13 06:13:38;;;;;;;6.10;3.30;;;;;;;17.13;93.76;100350.00;105630;1253;72549;-56
2023/07/13 06:16:08;;;;;;;4.10;2.40;;;;;;;17.11;93.53;100355.62;105869;1253;69110;-57
2023/07/13 06:18:37;;;;;;;5.80;2.70;;;;;;;17.08;93.30;100362.35;105629;1253;69106;-55
2023/07/13 06:21:08;;;;;;;4.70;3.00;;;;;;;17.05;93.73;100364.48;105976;1253;74853;-55
2023/07/13 06:23:37;;;;;;;4.90;3.20;;;;;;;17.05;94.08;100362.69;105653;1257;83421;-54
2023/07/13 06:26:06;;;;;;;6.80;3.20;;;;;;;17.02;93.84;100367.11;105674;1257;72750;-56
2023/07/13 06:28:36;;;;;;;5.50;3.30;;;;;;;16.98;93.87;100369.70;105568;1259;69218;-57
2023/07/13 06:31:06;;;;;;;;;;;;;;;16.95;94.28;100371.30;105801;1259;69537;-56
2023/07/13 06:33:34;;;;;;;5.20;3.10;;;;;;;16.94;94.67;100375.94;105807;1256;74825;-57
2023/07/13 06:36:05;;;;;;;3.40;2.80;;;;;;;16.93;94.63;100381.31;105435;1260;83107;-56
2023/07/13 06:38:33;;;;;;;5.10;3.20;;;;;;;16.89;94.42;100389.31;105415;1258;72731;-57
2023/07/13 06:41:02;;;;;;;5.10;3.00;;;;;;;16.84;94.32;100401.65;105464;1258;69193;-57
2023/07/13 06:43:31;;;;;;;5.20;3.30;;;;;;;16.81;94.72;100416.49;105410;1256;69067;-57
2023/07/13 06:46:00;;;;;;;3.80;3.20;;;;;;;16.78;94.68;100424.65;105446;1258;74529;-56
2023/07/13 06:48:29;;;;;;;4.10;3.10;;;;;;;16.70;94.52;100431.55;105408;1257;83561;-55
2023/07/13 06:50:57;;;;;;;8.10;3.30;;;;;;;16.65;94.32;100433.85;105355;1253;73843;-50
2023/07/13 06:53:26;;;;;;;4.80;3.60;;;;;;;16.61;94.46;100440.63;105456;1253;69210;-54
2023/07/13 06:55:54;;;;;;;6.40;3.40;;;;;;;16.59;94.82;100442.48;105462;1256;69635;-53
2023/07/13 06:58:23;;;;;;;4.60;3.70;;;;;;;16.62;95.11;100441.64;105435;1253;73794;-54
2023/07/13 07:00:52;;;;;;;8.60;4.30;;;;;;;16.66;95.41;100441.04;105380;1256;83167;-56
2023/07/13 07:03:21;;;;;;;7.60;4.20;;;;;;;16.71;96.01;100437.52;105470;1259;73669;-57
2023/07/13 07:05:49;;;;;;;7.50;4.60;;;;;;;16.79;96.42;100435.30;105706;1256;69119;-56
2023/07/13 07:08:18;;;;;;;8.50;4.10;;;;;;;16.86;96.65;100431.52;105651;1256;69093;-56
2023/07/13 07:10:46;;;;;;;7.40;4.40;;;;;;;16.92;96.78;100428.48;105407;1254;75224;-56
2023/07/13 07:13:14;;;;;;;6.80;4.00;;;;;;;16.95;96.85;100425.30;105551;1256;81904;-56
2023/07/13 07:15:43;;;;;;;5.90;4.10;;;;;;;16.95;96.56;100420.52;105513;1257;73978;-53
2023/07/13 07:18:11;;;;;;;5.80;4.10;;;;;;;17.00;97.11;100413.20;105393;1255;69785;-53
2023/07/13 07:20:39;;;;;;;5.90;4.00;;;;;;;17.11;97.70;100405.77;105445;1257;69250;-53
2023/07/13 07:23:08;;;;;;;5.90;4.20;;;;;;;17.20;97.88;100401.82;105411;1257;73838;-53
2023/07/13 07:25:41;;;;;;;7.00;4.20;;;;;;;17.28;97.94;100395.14;105398;1259;83689;-50
2023/07/13 07:28:11;;;;;;;4.30;3.70;;;;;;;17.36;97.95;100378.31;105435;1257;73898;-56
2023/07/13 07:30:43;;;;;;;4.70;3.70;;;;;;;17.43;97.89;100363.73;105208;1265;69146;-52
2023/07/13 07:33:14;;;;;;;6.40;4.50;;;;;;;17.52;98.11;100362.29;104761;1268;69878;-51
2023/07/13 07:35:43;;;;;;;6.10;3.90;;;;;;;17.62;97.95;100360.52;104594;1264;75065;-51
2023/07/13 07:38:31;;;;;;;5.60;4.10;;;;;;;17.77;98.22;100358.65;104560;1270;83096;-54
2023/07/13 07:41:05;;;;;;;8.90;4.50;;;;;;;17.85;97.64;100366.46;104778;1268;73942;-55
2023/07/13 07:43:36;;;;;;;6.50;4.00;;;;;;;17.96;97.56;100377.05;104563;1271;69209;-54
2023/07/13 07:46:05;;;;;;;6.10;3.90;;;;;;;18.04;96.88;100372.36;104794;1271;69380;-56
2023/07/13 07:48:33;;;;;;;6.80;4.10;;;;;;;18.11;96.76;100369.48;104949;1266;75427;-53
2023/07/13 07:51:02;;;;;;;7.00;3.50;;;;;;;18.24;96.89;100366.04;105006;1265;83308;-54
2023/07/13 07:53:30;;;;;;;5.30;4.00;;;;;;;18.39;96.53;100364.47;105426;1257;73473;-56
2023/07/13 07:56:01;;;;;;;7.30;4.40;;;;;;;18.51;96.35;100363.32;105331;1271;69324;-55
2023/07/13 07:58:49;;;;;;;6.20;3.50;;;;;;;18.63;96.59;100367.20;105110;1263;69214;-55
2023/07/13 08:01:21;;;;;;;5.70;3.90;;;;;;;18.74;96.21;100367.54;104753;1261;75107;-56
2023/07/13 08:03:52;;;;;;;7.70;3.90;;;;;;;18.73;95.45;100365.80;104740;1266;81246;-56
2023/07/13 08:06:24;;;;;;;5.80;3.80;;;;;;;18.72;95.08;100368.86;104424;1267;73648;-55
2023/07/13 08:08:55;;;;;;;10.20;3.90;;;;;;;18.76;95.31;100367.95;104174;1276;69239;-56
2023/07/13 08:11:24;;;;;;;7.80;3.60;;;;;;;18.80;95.45;100371.34;104197;1277;69202;-55
2023/07/13 08:13:55;;;;;;;4.10;3.30;;;;;;;18.84;95.41;100376.56;103739;1274;73590;-56
2023/07/13 08:16:23;;;;;;;6.50;3.30;;;;;;;18.86;94.99;100375.13;104003;1280;83574;-55
2023/07/13 08:18:52;;;;;;;6.10;3.70;;;;;;;18.89;95.04;100377.07;103988;1273;73777;-55
2023/07/13 08:21:21;;;;;;;4.00;3.00;;;;;;;18.96;95.21;100384.55;103851;1277;69298;-55
2023/07/13 08:23:50;;;;;;;5.60;3.30;;;;;;;19.03;95.27;100385.83;104685;1273;69408;-54
2023/07/13 08:26:18;;;;;;;5.40;3.50;;;;;;;19.11;95.23;100389.10;104655;1265;73831;-55
2023/07/13 08:28:47;;;;;;;6.80;3.20;;;;;;;19.17;95.23;100388.83;104636;1266;83856;-56
2023/07/13 08:31:16;;;;;;;4.90;2.90;;;;;;;19.26;95.42;100389.10;104869;1267;73631;-55
2023/07/13 08:33:44;;;;;;;5.30;2.90;;;;;;;19.34;95.04;100384.93;105155;1259;69191;-55
2023/07/13 08:36:12;;;;;;;3.90;3.00;;;;;;;19.40;94.93;100386.48;105466;1256;69167;-55
2023/07/13 08:38:41;;;;;;;3.10;2.50;;;;;;;19.44;94.37;100394.89;105460;1255;74763;-55
2023/07/13 08:41:13;;;;;;;3.10;2.70;;;;;;;19.41;93.67;100397.04;105463;1256;83479;-55
2023/07/13 08:43:45;;;;;;;6.50;3.40;;;;;;;19.48;94.25;100397.06;105489;1254;73760;-55
2023/07/13 08:46:19;;;;;;;5.90;3.20;;;;;;;19.58;94.01;100397.17;105445;1253;69170;-52
2023/07/13 08:48:57;;;;;;;7.10;3.10;;;;;;;19.57;93.57;100397.79;105485;1259;69149;-55
2023/07/13 08:51:47;;;;;;;4.70;3.30;;;;;;;19.73;94.59;100400.70;105600;1257;74221;-51
2023/07/13 08:54:27;;;;;;;3.90;3.30;;;;;;;19.82;94.05;100405.32;105492;1255;82777;-53
2023/07/13 08:56:56;;;;;;;7.50;3.20;;;;;;;19.94;94.40;100409.21;105425;1264;73550;-51
2023/07/13 08:59:28;;;;;;;5.50;3.00;;;;;;;20.01;93.55;100414.02;105478;1257;69231;-54
2023/07/13 09:02:06;;;;;;;4.80;3.00;;;;;;;20.07;93.18;100414.78;105462;1254;69086;-55
2023/07/13 09:04:45;;;;;;;6.30;3.00;;;;;;;20.23;93.81;100417.27;105683;1254;74844;-55
2023/07/13 09:07:34;;;;;;;6.80;3.00;;;;;;;20.44;92.91;100415.82;105428;1254;82743;-51
2023/07/13 09:10:25;;;;;;;7.60;3.30;;;;;;;20.48;91.78;100418.16;105359;1259;74090;-50
2023/07/13 09:13:00;;;;;;;6.80;3.20;;;;;;;20.61;91.53;100425.67;105287;1259;69189;-52
2023/07/13 09:15:36;;;;;;;5.30;3.10;;;;;;;20.64;90.83;100424.95;105583;1257;69717;-52
2023/07/13 09:18:11;;;;;;;5.90;3.10;;;;;;;20.65;89.96;100426.10;105424;1258;74952;-51
2023/07/13 09:21:04;;;;;;;3.90;3.10;;;;;;;20.68;89.69;100428.56;105597;1258;83628;-51
2023/07/13 09:23:32;;;;;;;7.90;3.30;;;;;;;20.76;89.93;100425.39;105367;1254;73813;-50
2023/07/13 09:26:21;;;;;;;4.90;3.00;;;;;;;21.01;90.50;100422.90;105463;1253;69961;-51
2023/07/13 09:28:54;;;;;;;6.70;3.30;;;;;;;21.33;90.26;100424.08;105683;1255;69923;-50
2023/07/13 09:31:31;;;;;;;4.90;3.10;;;;;;;21.45;89.52;100423.96;105424;1257;74498;-50
2023/07/13 09:34:00;;;;;;;4.90;2.90;;;;;;;21.61;88.99;100433.85;105421;1257;82631;-49
2023/07/13 09:36:34;;;;;;;4.60;3.20;;;;;;;21.64;87.82;100440.54;105461;1257;73178;-50
2023/07/13 09:39:29;;;;;;;7.10;3.10;;;;;;;21.67;87.68;100446.11;105584;1253;69870;-50
2023/07/13 09:42:19;;;;;;;6.20;3.20;;;;;;;21.79;87.41;100442.14;105432;1257;70006;-50
2023/07/13 09:44:48;;;;;;;6.30;3.40;;;;;;;21.81;86.82;100442.83;105453;1256;73854;-49
2023/07/13 09:47:32;;;;;;;5.80;3.50;;;;;;;21.76;86.36;100439.92;105481;1257;83648;-51
2023/07/13 09:50:06;;;;;;;3.90;3.40;;;;;;;21.81;86.26;100438.91;105421;1257;72732;-50
2023/07/13 09:52:42;;;;;;;6.70;3.00;;;;;;;21.96;86.51;100442.13;105365;1253;69946;-49
2023/07/13 09:55:34;;;;;;;4.60;2.90;;;;;;;22.13;86.31;100440.52;105427;1258;69889;-50
2023/07/13 09:58:16;;;;;;;3.40;3.10;;;;;;;22.37;86.23;100443.34;105412;1254;74901;-50
2023/07/13 10:00:55;;;;;;;5.80;3.00;;;;;;;22.67;86.79;100443.40;105530;1258;83033;-51
2023/07/13 10:03:30;;;;;;;4.40;2.90;;;;;;;22.99;86.55;100450.77;105450;1254;73601;-51
2023/07/13 10:06:13;;;;;;;5.50;3.10;;;;;;;23.09;85.22;100449.20;105427;1257;69185;-51
2023/07/13 10:08:42;;;;;;;4.70;3.20;;;;;;;23.09;84.49;100448.30;105433;1254;69157;-50
2023/07/13 10:11:11;;;;;;;4.70;3.20;;;;;;;23.07;83.95;100448.29;105405;1257;74268;-51
2023/07/13 10:13:44;;;;;;;5.40;3.30;;;;;;;23.02;83.49;100450.38;105464;1257;83321;-49
2023/07/13 10:16:12;;;;;;;6.50;3.40;;;;;;;22.96;83.13;100449.96;105398;1253;73620;-49
2023/07/13 10:18:57;;;;;;;5.80;3.50;;;;;;;22.95;82.77;100451.45;105425;1254;69859;-48
2023/07/13 10:21:30;;;;;;;3.90;3.20;;;;;;;22.93;82.26;100450.94;105479;1257;69950;-48
2023/07/13 10:24:15;;;;;;;6.40;3.10;;;;;;;22.90;81.60;100455.37;105564;1254;74870;-49
2023/07/13 10:26:53;;;;;;;5.10;3.10;;;;;;;22.80;80.89;100451.14;105420;1257;83592;-48
2023/07/13 10:29:22;;;;;;;6.70;3.60;;;;;;;22.74;80.60;100450.78;105612;1257;73736;-48
2023/07/13 10:31:51;;;;;;;5.00;3.10;;;;;;;22.74;80.27;100452.43;105460;1258;69929;-48
2023/07/13 10:34:20;;;;;;;4.60;3.20;;;;;;;22.77;80.14;100453.07;105390;1258;69967;-48
2023/07/13 10:36:48;;;;;;;5.20;3.10;;;;;;;22.78;80.02;100452.93;105516;1256;75013;-47
2023/07/13 10:39:23;;;;;;;3.70;3.20;;;;;;;22.86;80.02;100454.33;105723;1254;83310;-47
2023/07/13 10:41:55;;;;;;;4.60;3.10;;;;;;;23.06;79.48;100452.65;105535;1259;73684;-50
2023/07/13 10:44:30;;;;;;;6.00;3.30;;;;;;;23.25;79.16;100447.95;105308;1254;69934;-52
2023/07/13 10:47:01;;;;;;;3.70;2.70;;;;;;;23.61;78.97;100447.69;105575;1255;69960;-48
2023/07/13 10:49:31;;;;;;;7.70;3.20;;;;;;;24.03;78.76;100450.30;105443;1256;73480;-48
2023/07/13 10:51:59;;;;;;;5.90;3.60;;;;;;;24.24;77.59;100452.78;105409;1254;82513;-47
2023/07/13 10:54:32;;;;;;;4.30;3.10;;;;;;;24.30;76.58;100453.46;105405;1257;73668;-47
2023/07/13 10:57:26;;;;;;;6.50;3.00;;;;;;;24.46;76.46;100443.98;105418;1255;69810;-51
2023/07/13 11:00:17;;;;;;;4.40;2.90;;;;;;;24.83;75.56;100443.13;105186;1257;70028;-50
2023/07/13 11:03:03;;;;;;;6.10;3.00;;;;;;;25.10;74.21;100437.52;105732;1257;74883;-49
2023/07/13 11:05:33;;;;;;;5.00;2.70;;;;;;;25.32;73.84;100437.89;105461;1254;83074;-51
2023/07/13 11:08:16;;;;;;;3.40;2.70;;;;;;;25.64;73.04;100435.92;105408;1257;72043;-48
2023/07/13 11:10:53;;;;;;;3.50;2.60;;;;;;;25.87;72.44;100436.16;105623;1257;69994;-48
2023/07/13 11:13:50;;;;;;;5.20;2.70;;;;;;;25.79;71.04;100432.76;105450;1257;69987;-50
2023/07/13 11:16:18;;;;;;;4.80;2.60;;;;;;;25.75;70.17;100430.52;105419;1254;75076;-48
2023/07/13 11:18:50;;;;;;;3.80;3.00;;;;;;;25.77;69.99;100434.42;105497;1257;83662;-48
2023/07/13 11:21:26;;;;;;;5.10;2.60;;;;;;;25.80;69.67;100434.67;105438;1257;73368;-48
2023/07/13 11:24:16;;;;;;;2.90;2.40;;;;;;;26.10;69.12;100432.85;105414;1258;69977;-48
2023/07/13 11:26:47;;;;;;;3.90;2.40;;;;;;;26.52;68.38;100430.00;105451;1253;69997;-49
2023/07/13 11:29:31;;;;;;;3.70;2.20;;;;;;;26.91;67.61;100432.00;105456;1254;74765;-50
2023/07/13 11:32:02;;;;;;;3.90;2.50;;;;;;;27.27;66.98;100429.35;105539;1258;83298;-48
2023/07/13 11:34:35;;;;;;;4.40;2.20;;;;;;;27.58;65.72;100427.18;105539;1255;73068;-48
2023/07/13 11:37:04;;;;;;;3.50;2.40;;;;;;;27.77;64.34;100425.74;105419;1253;69833;-49
2023/07/13 11:39:35;;;;;;;22.10;3.20;;;;;;;28.20;63.81;100418.29;105451;1254;70016;-48